sensor_id;sensor_type;location;lat;lon;timestamp;pressure;altitude;pressure_sealevel;temperature;humidity
54910;BME280;63189;51.240;9.964;2023-03-04T00:01:57;98459.66;;;0.72;100.00
54910;BME280;63189;51.240;9.964;2023-03-04T00:04:23;98457.09;;;0.72;100.00
54910;BME280;63189;51.240;9.964;2023-03-04T00:06:48;98458.91;;;0.78;100.00
54910;BME280;63189;51.240;9.964;2023-03-04T00:09:13;98458.06;;;0.79;100.00
54910;BME280;63189;51.240;9.964;2023-03-04T00:11:38;98454.66;;;0.81;100.00
54910;BME280;63189;51.240;9.964;2023-03-04T00:14:04;98453.78;;;0.79;100.00
54910;BME280;63189;51.240;9.964;2023-03-04T00:16:29;98458.94;;;0.79;100.00
54910;BME280;63189;51.240;9.964;2023-03-04T00:18:55;98457.25;;;0.81;100.00
54910;BME280;63189;51.240;9.964;2023-03-04T00:21:21;98453.78;;;0.79;100.00
54910;BME280;63189;51.240;9.964;2023-03-04T00:23:47;98445.28;;;0.82;100.00
54910;BME280;63189;51.240;9.964;2023-03-04T00:26:13;98442.78;;;0.85;100.00
54910;BME280;63189;51.240;9.964;2023-03-04T00:28:39;98447.91;;;0.85;100.00
54910;BME280;63189;51.240;9.964;2023-03-04T00:31:05;98441.94;;;0.88;100.00
54910;BME280;63189;51.240;9.964;2023-03-04T00:33:33;98441.97;;;0.89;100.00
54910;BME280;63189;51.240;9.964;2023-03-04T00:35:59;98440.25;;;0.90;100.00
54910;BME280;63189;51.240;9.964;2023-03-04T00:38:24;98441.13;;;0.90;100.00
54910;BME280;63189;51.240;9.964;2023-03-04T00:40:50;98441.13;;;0.90;100.00
54910;BME280;63189;51.240;9.964;2023-03-04T00:43:15;98444.56;;;0.91;100.00
54910;BME280;63189;51.240;9.964;2023-03-04T00:45:41;98441.16;;;0.92;100.00
54910;BME280;63189;51.240;9.964;2023-03-04T00:48:06;98435.16;;;0.93;99.94
54910;BME280;63189;51.240;9.964;2023-03-04T00:50:32;98434.28;;;0.89;99.91
54910;BME280;63189;51.240;9.964;2023-03-04T00:52:57;98425.72;;;0.90;99.91
54910;BME280;63189;51.240;9.964;2023-03-04T00:55:23;98425.72;;;0.90;99.89
54910;BME280;63189;51.240;9.964;2023-03-04T00:57:49;98425.72;;;0.90;99.79
54910;BME280;63189;51.240;9.964;2023-03-04T01:00:15;98418.88;;;0.89;99.91
54910;BME280;63189;51.240;9.964;2023-03-04T01:02:40;98425.72;;;0.90;99.63
54910;BME280;63189;51.240;9.964;2023-03-04T01:05:06;98426.59;;;0.91;99.53
54910;BME280;63189;51.240;9.964;2023-03-04T01:07:32;98420.59;;;0.90;99.75
54910;BME280;63189;51.240;9.964;2023-03-04T01:09:57;98413.72;;;0.89;99.71
54910;BME280;63189;51.240;9.964;2023-03-04T01:12:23;98417.16;;;0.90;99.97
54910;BME280;63189;51.240;9.964;2023-03-04T01:14:48;98412.91;;;0.92;99.76
54910;BME280;63189;51.240;9.964;2023-03-04T01:17:13;98412.03;;;0.91;99.85
54910;BME280;63189;51.240;9.964;2023-03-04T01:19:39;98405.19;;;0.90;100.00
54910;BME280;63189;51.240;9.964;2023-03-04T01:22:04;98400.91;;;0.89;99.91
54910;BME280;63189;51.240;9.964;2023-03-04T01:24:29;98408.59;;;0.89;99.72
54910;BME280;63189;51.240;9.964;2023-03-04T01:26:55;98395.75;;;0.88;99.67
54910;BME280;63189;51.240;9.964;2023-03-04T01:29:20;98398.31;;;0.88;99.04
54910;BME280;63189;51.240;9.964;2023-03-04T01:31:46;98404.28;;;0.86;99.19
54910;BME280;63189;51.240;9.964;2023-03-04T01:34:11;98395.75;;;0.88;99.26
54910;BME280;63189;51.240;9.964;2023-03-04T01:36:36;98394.03;;;0.86;99.21
54910;BME280;63189;51.240;9.964;2023-03-04T01:39:02;98391.50;;;0.90;99.20
54910;BME280;63189;51.240;9.964;2023-03-04T01:41:28;98392.38;;;0.92;99.25
54910;BME280;63189;51.240;9.964;2023-03-04T01:43:57;98388.06;;;0.91;99.34
54910;BME280;63189;51.240;9.964;2023-03-04T01:46:25;98379.53;;;0.92;98.91
54910;BME280;63189;51.240;9.964;2023-03-04T01:48:51;98380.38;;;0.91;99.05
54910;BME280;63189;51.240;9.964;2023-03-04T01:51:18;98373.53;;;0.90;99.21
54910;BME280;63189;51.240;9.964;2023-03-04T01:53:46;98382.09;;;0.90;98.98
54910;BME280;63189;51.240;9.964;2023-03-04T01:56:27;98370.09;;;0.91;98.68
54910;BME280;63189;51.240;9.964;2023-03-04T01:59:25;98370.97;;;0.91;98.67
54910;BME280;63189;51.240;9.964;2023-03-04T02:01:53;98366.69;;;0.92;98.78
54910;BME280;63189;51.240;9.964;2023-03-04T02:04:21;98365.00;;;0.94;98.88
54910;BME280;63189;51.240;9.964;2023-03-04T02:06:48;98359.88;;;0.94;98.80
54910;BME280;63189;51.240;9.964;2023-03-04T02:09:15;98362.44;;;0.94;98.83
54910;BME280;63189;51.240;9.964;2023-03-04T02:11:41;98354.78;;;0.95;98.83
54910;BME280;63189;51.240;9.964;2023-03-04T02:14:07;98357.34;;;0.95;98.64
54910;BME280;63189;51.240;9.964;2023-03-04T02:16:33;98356.50;;;0.95;98.62
54910;BME280;63189;51.240;9.964;2023-03-04T02:18:59;98356.44;;;0.92;98.51
54910;BME280;63189;51.240;9.964;2023-03-04T02:21:29;98357.34;;;0.95;98.50
54910;BME280;63189;51.240;9.964;2023-03-04T02:24:14;98358.16;;;0.93;98.18
54910;BME280;63189;51.240;9.964;2023-03-04T02:26:44;98353.88;;;0.92;98.37
54910;BME280;63189;51.240;9.964;2023-03-04T02:29:13;98354.75;;;0.94;98.68
54910;BME280;63189;51.240;9.964;2023-03-04T02:31:52;98352.16;;;0.92;98.74
54910;BME280;63189;51.240;9.964;2023-03-04T02:34:20;98346.16;;;0.92;98.50
54910;BME280;63189;51.240;9.964;2023-03-04T02:36:47;98347.88;;;0.93;98.34
54910;BME280;63189;51.240;9.964;2023-03-04T02:41:50;98340.19;;;0.93;98.34
54910;BME280;63189;51.240;9.964;2023-03-04T02:44:19;98346.19;;;0.93;98.48
54910;BME280;63189;51.240;9.964;2023-03-04T02:46:45;98338.47;;;0.93;98.46
54910;BME280;63189;51.240;9.964;2023-03-04T02:49:11;98333.31;;;0.92;98.43
54910;BME280;63189;51.240;9.964;2023-03-04T02:51:36;98345.38;;;0.94;98.79
54910;BME280;63189;51.240;9.964;2023-03-04T02:54:02;98331.63;;;0.92;98.25
54910;BME280;63189;51.240;9.964;2023-03-04T02:56:27;98334.16;;;0.91;98.34
54910;BME280;63189;51.240;9.964;2023-03-04T02:58:52;98342.81;;;0.94;98.47
54910;BME280;63189;51.240;9.964;2023-03-04T03:01:17;98334.19;;;0.92;98.42
54910;BME280;63189;51.240;9.964;2023-03-04T03:03:43;98341.09;;;0.95;98.31
54910;BME280;63189;51.240;9.964;2023-03-04T03:06:08;98324.78;;;0.93;98.20
54910;BME280;63189;51.240;9.964;2023-03-04T03:08:34;98327.41;;;0.96;98.39
54910;BME280;63189;51.240;9.964;2023-03-04T03:10:59;98319.72;;;0.96;98.10
54910;BME280;63189;51.240;9.964;2023-03-04T03:13:25;98317.16;;;0.96;98.07
54910;BME280;63189;51.240;9.964;2023-03-04T03:15:50;98319.72;;;0.96;98.33
54910;BME280;63189;51.240;9.964;2023-03-04T03:18:15;98309.47;;;0.97;97.62
54910;BME280;63189;51.240;9.964;2023-03-04T03:20:41;98318.00;;;0.95;97.93
54910;BME280;63189;51.240;9.964;2023-03-04T03:23:07;98319.72;;;0.97;98.31
54910;BME280;63189;51.240;9.964;2023-03-04T03:25:32;98314.59;;;0.97;98.17
54910;BME280;63189;51.240;9.964;2023-03-04T03:27:57;98324.88;;;0.97;97.94
54910;BME280;63189;51.240;9.964;2023-03-04T03:30:23;98316.34;;;1.00;98.08
54910;BME280;63189;51.240;9.964;2023-03-04T03:32:48;98318.06;;;1.01;97.96
54910;BME280;63189;51.240;9.964;2023-03-04T03:35:13;98306.06;;;1.01;98.17
54910;BME280;63189;51.240;9.964;2023-03-04T03:37:39;98317.22;;;1.02;98.28
54910;BME280;63189;51.240;9.964;2023-03-04T03:40:05;98318.06;;;1.01;98.24
54910;BME280;63189;51.240;9.964;2023-03-04T03:42:31;98320.63;;;1.01;98.15
54910;BME280;63189;51.240;9.964;2023-03-04T03:44:56;98320.63;;;1.01;98.00
54910;BME280;63189;51.240;9.964;2023-03-04T03:47:23;98318.03;;;0.99;98.01
54910;BME280;63189;51.240;9.964;2023-03-04T03:49:48;98322.31;;;0.99;98.10
54910;BME280;63189;51.240;9.964;2023-03-04T03:52:14;98324.03;;;1.00;98.11
54910;BME280;63189;51.240;9.964;2023-03-04T03:54:39;98322.31;;;0.99;97.87
54910;BME280;63189;51.240;9.964;2023-03-04T03:57:04;98312.03;;;0.99;98.13
54910;BME280;63189;51.240;9.964;2023-03-04T03:59:30;98312.91;;;0.99;98.13
54910;BME280;63189;51.240;9.964;2023-03-04T04:01:55;98315.47;;;1.01;98.14
54910;BME280;63189;51.240;9.964;2023-03-04T04:04:20;98317.22;;;1.02;98.21
54910;BME280;63189;51.240;9.964;2023-03-04T04:06:46;98308.63;;;1.00;98.09
54910;BME280;63189;51.240;9.964;2023-03-04T04:09:11;98311.22;;;1.01;97.93
54910;BME280;63189;51.240;9.964;2023-03-04T04:11:36;98309.50;;;1.00;98.27
54910;BME280;63189;51.240;9.964;2023-03-04T04:14:02;98307.78;;;1.01;97.73
54910;BME280;63189;51.240;9.964;2023-03-04T04:16:27;98302.63;;;0.98;97.69
54910;BME280;63189;51.240;9.964;2023-03-04T04:18:52;98304.34;;;0.99;97.97
54910;BME280;63189;51.240;9.964;2023-03-04T04:21:18;98302.63;;;0.99;98.14
54910;BME280;63189;51.240;9.964;2023-03-04T04:23:43;98316.34;;;1.01;97.92
54910;BME280;63189;51.240;9.964;2023-03-04T04:26:08;98307.78;;;1.02;98.19
54910;BME280;63189;51.240;9.964;2023-03-04T04:28:34;98311.28;;;1.04;97.87
54910;BME280;63189;51.240;9.964;2023-03-04T04:30:59;98308.69;;;1.04;98.10
54910;BME280;63189;51.240;9.964;2023-03-04T04:33:25;98296.72;;;1.05;98.11
54910;BME280;63189;51.240;9.964;2023-03-04T04:35:50;98302.69;;;1.04;97.63
54910;BME280;63189;51.240;9.964;2023-03-04T04:38:15;98295.81;;;1.01;97.45
54910;BME280;63189;51.240;9.964;2023-03-04T04:40:42;98301.81;;;1.03;97.55
54910;BME280;63189;51.240;9.964;2023-03-04T04:43:07;98305.28;;;1.05;97.26
54910;BME280;63189;51.240;9.964;2023-03-04T04:45:33;98295.03;;;1.07;97.57
54910;BME280;63189;51.240;9.964;2023-03-04T04:47:58;98294.19;;;1.08;97.48
54910;BME280;63189;51.240;9.964;2023-03-04T04:50:25;98290.78;;;1.09;97.60
54910;BME280;63189;51.240;9.964;2023-03-04T04:52:50;98287.34;;;1.08;97.70
54910;BME280;63189;51.240;9.964;2023-03-04T04:55:16;98294.19;;;1.09;97.37
54910;BME280;63189;51.240;9.964;2023-03-04T04:57:41;98282.25;;;1.11;97.41
54910;BME280;63189;51.240;9.964;2023-03-04T05:00:08;98291.66;;;1.11;97.59
54910;BME280;63189;51.240;9.964;2023-03-04T05:02:35;98291.66;;;1.11;97.47
54910;BME280;63189;51.240;9.964;2023-03-04T05:05:05;98292.50;;;1.11;97.27
54910;BME280;63189;51.240;9.964;2023-03-04T05:07:31;98293.38;;;1.12;97.38
54910;BME280;63189;51.240;9.964;2023-03-04T05:09:56;98298.50;;;1.12;97.54
54910;BME280;63189;51.240;9.964;2023-03-04T05:12:21;98294.22;;;1.12;97.52
54910;BME280;63189;51.240;9.964;2023-03-04T05:14:47;98293.44;;;1.15;97.49
54910;BME280;63189;51.240;9.964;2023-03-04T05:17:12;98304.56;;;1.17;97.27
54910;BME280;63189;51.240;9.964;2023-03-04T05:19:37;98300.28;;;1.16;97.31
54910;BME280;63189;51.240;9.964;2023-03-04T05:22:03;98296.81;;;1.14;97.33
54910;BME280;63189;51.240;9.964;2023-03-04T05:24:28;98297.66;;;1.13;97.05
54910;BME280;63189;51.240;9.964;2023-03-04T05:26:53;98307.09;;;1.14;97.04
54910;BME280;63189;51.240;9.964;2023-03-04T05:29:19;98307.94;;;1.14;96.99
54910;BME280;63189;51.240;9.964;2023-03-04T05:31:44;98302.00;;;1.17;97.25
54910;BME280;63189;51.240;9.964;2023-03-04T05:34:09;98300.31;;;1.19;97.33
54910;BME280;63189;51.240;9.964;2023-03-04T05:36:35;98299.44;;;1.19;97.28
54910;BME280;63189;51.240;9.964;2023-03-04T05:39:00;98306.31;;;1.20;97.50
54910;BME280;63189;51.240;9.964;2023-03-04T05:41:25;98302.03;;;1.20;97.37
54910;BME280;63189;51.240;9.964;2023-03-04T05:43:51;98310.63;;;1.22;97.54
54910;BME280;63189;51.240;9.964;2023-03-04T05:46:17;98306.34;;;1.24;97.55
54910;BME280;63189;51.240;9.964;2023-03-04T05:48:43;98303.78;;;1.24;97.83
54910;BME280;63189;51.240;9.964;2023-03-04T05:51:09;98297.00;;;1.26;97.71
54910;BME280;63189;51.240;9.964;2023-03-04T05:53:35;98309.81;;;1.26;97.73
54910;BME280;63189;51.240;9.964;2023-03-04T05:56:09;98310.69;;;1.28;97.93
54910;BME280;63189;51.240;9.964;2023-03-04T05:58:35;98300.44;;;1.28;97.93
54910;BME280;63189;51.240;9.964;2023-03-04T06:01:00;98309.84;;;1.28;97.91
54910;BME280;63189;51.240;9.964;2023-03-04T06:03:26;98304.69;;;1.26;97.87
54910;BME280;63189;51.240;9.964;2023-03-04T06:05:52;98301.25;;;1.26;97.89
54910;BME280;63189;51.240;9.964;2023-03-04T06:08:18;98303.84;;;1.27;97.59
54910;BME280;63189;51.240;9.964;2023-03-04T06:10:43;98300.44;;;1.28;98.17
54910;BME280;63189;51.240;9.964;2023-03-04T06:13:09;98302.16;;;1.29;97.95
54910;BME280;63189;51.240;9.964;2023-03-04T06:15:34;98298.75;;;1.33;98.04
54910;BME280;63189;51.240;9.964;2023-03-04T06:18:00;98305.63;;;1.34;98.18
54910;BME280;63189;51.240;9.964;2023-03-04T06:20:26;98311.63;;;1.35;97.91
54910;BME280;63189;51.240;9.964;2023-03-04T06:22:52;98314.22;;;1.36;98.21
54910;BME280;63189;51.240;9.964;2023-03-04T06:25:17;98313.38;;;1.36;97.80
54910;BME280;63189;51.240;9.964;2023-03-04T06:27:43;98312.47;;;1.35;97.93
54910;BME280;63189;51.240;9.964;2023-03-04T06:30:09;98315.03;;;1.35;97.87
54910;BME280;63189;51.240;9.964;2023-03-04T06:32:34;98314.25;;;1.39;97.75
54910;BME280;63189;51.240;9.964;2023-03-04T06:35:00;98307.41;;;1.38;98.06
54910;BME280;63189;51.240;9.964;2023-03-04T06:37:25;98313.41;;;1.40;98.43
54910;BME280;63189;51.240;9.964;2023-03-04T06:39:50;98316.84;;;1.41;98.77
54910;BME280;63189;51.240;9.964;2023-03-04T06:42:16;98314.28;;;1.42;98.92
54910;BME280;63189;51.240;9.964;2023-03-04T06:44:41;98317.69;;;1.41;98.82
54910;BME280;63189;51.240;9.964;2023-03-04T06:47:06;98322.00;;;1.44;98.59
54910;BME280;63189;51.240;9.964;2023-03-04T06:49:32;98315.19;;;1.46;98.76
54910;BME280;63189;51.240;9.964;2023-03-04T06:51:57;98312.66;;;1.48;98.81
54910;BME280;63189;51.240;9.964;2023-03-04T06:54:22;98310.06;;;1.46;98.44
54910;BME280;63189;51.240;9.964;2023-03-04T06:56:48;98314.31;;;1.45;98.78
54910;BME280;63189;51.240;9.964;2023-03-04T06:59:13;98311.78;;;1.49;98.74
54910;BME280;63189;51.240;9.964;2023-03-04T07:01:38;98307.50;;;1.48;98.42
54910;BME280;63189;51.240;9.964;2023-03-04T07:04:04;98316.09;;;1.51;98.58
54910;BME280;63189;51.240;9.964;2023-03-04T07:06:29;98314.38;;;1.49;98.54
54910;BME280;63189;51.240;9.964;2023-03-04T07:08:56;98320.38;;;1.52;98.36
54910;BME280;63189;51.240;9.964;2023-03-04T07:11:22;98317.84;;;1.55;98.71
54910;BME280;63189;51.240;9.964;2023-03-04T07:13:49;98322.97;;;1.54;98.37
54910;BME280;63189;51.240;9.964;2023-03-04T07:16:18;98328.13;;;1.54;98.61
54910;BME280;63189;51.240;9.964;2023-03-04T07:18:44;98325.53;;;1.54;98.17
54910;BME280;63189;51.240;9.964;2023-03-04T07:21:09;98322.97;;;1.54;98.17
54910;BME280;63189;51.240;9.964;2023-03-04T07:23:36;98322.97;;;1.55;98.16
54910;BME280;63189;51.240;9.964;2023-03-04T07:26:03;98330.75;;;1.58;98.49
54910;BME280;63189;51.240;9.964;2023-03-04T07:28:28;98325.59;;;1.57;98.54
54910;BME280;63189;51.240;9.964;2023-03-04T07:30:54;98329.06;;;1.62;98.54
54910;BME280;63189;51.240;9.964;2023-03-04T07:33:19;98331.63;;;1.62;98.69
54910;BME280;63189;51.240;9.964;2023-03-04T07:35:45;98332.50;;;1.62;98.18
54910;BME280;63189;51.240;9.964;2023-03-04T07:38:10;98340.28;;;1.67;98.51
54910;BME280;63189;51.240;9.964;2023-03-04T07:40:36;98346.28;;;1.69;98.45
54910;BME280;63189;51.240;9.964;2023-03-04T07:43:01;98329.09;;;1.66;99.00
54910;BME280;63189;51.240;9.964;2023-03-04T07:45:27;98336.88;;;1.71;99.51
54910;BME280;63189;51.240;9.964;2023-03-04T07:47:52;98331.75;;;1.74;99.09
54910;BME280;63189;51.240;9.964;2023-03-04T07:50:18;98330.03;;;1.73;99.09
54910;BME280;63189;51.240;9.964;2023-03-04T07:52:46;98338.69;;;1.78;98.53
54910;BME280;63189;51.240;9.964;2023-03-04T07:55:14;98330.97;;;1.81;98.59
54910;BME280;63189;51.240;9.964;2023-03-04T07:57:41;98337.00;;;1.83;98.95
54910;BME280;63189;51.240;9.964;2023-03-04T08:00:09;98334.44;;;1.85;98.73
54910;BME280;63189;51.240;9.964;2023-03-04T08:02:37;98336.16;;;1.84;99.68
54910;BME280;63189;51.240;9.964;2023-03-04T08:05:06;98336.16;;;1.86;99.16
54910;BME280;63189;51.240;9.964;2023-03-04T08:07:32;98333.66;;;1.92;99.10
54910;BME280;63189;51.240;9.964;2023-03-04T08:09:57;98337.97;;;1.96;99.14
54910;BME280;63189;51.240;9.964;2023-03-04T08:12:23;98327.75;;;1.99;99.00
54910;BME280;63189;51.240;9.964;2023-03-04T08:14:49;98330.34;;;2.07;98.74
54910;BME280;63189;51.240;9.964;2023-03-04T08:17:15;98325.28;;;2.13;99.01
54910;BME280;63189;51.240;9.964;2023-03-04T08:19:40;98328.78;;;2.21;98.87
54910;BME280;63189;51.240;9.964;2023-03-04T08:22:06;98328.84;;;2.28;98.65
54910;BME280;63189;51.240;9.964;2023-03-04T08:24:34;98318.59;;;2.31;98.08
54910;BME280;63189;51.240;9.964;2023-03-04T08:26:59;98313.44;;;2.33;97.97
54910;BME280;63189;51.240;9.964;2023-03-04T08:29:25;98309.25;;;2.43;97.79
54910;BME280;63189;51.240;9.964;2023-03-04T08:31:52;98304.13;;;2.49;97.76
54910;BME280;63189;51.240;9.964;2023-03-04T08:34:19;98310.19;;;2.55;97.13
54910;BME280;63189;51.240;9.964;2023-03-04T08:36:46;98303.38;;;2.60;96.98
54910;BME280;63189;51.240;9.964;2023-03-04T08:39:12;98299.09;;;2.67;96.65
54910;BME280;63189;51.240;9.964;2023-03-04T08:41:38;98300.88;;;2.71;95.77
54910;BME280;63189;51.240;9.964;2023-03-04T08:44:04;98300.00;;;2.75;95.12
54910;BME280;63189;51.240;9.964;2023-03-04T08:46:32;98301.78;;;2.82;96.23
54910;BME280;63189;51.240;9.964;2023-03-04T08:48:58;98302.66;;;2.87;95.30
54910;BME280;63189;51.240;9.964;2023-03-04T08:51:23;98310.38;;;2.89;94.20
54910;BME280;63189;51.240;9.964;2023-03-04T08:53:49;98307.81;;;2.84;94.07
54910;BME280;63189;51.240;9.964;2023-03-04T08:56:14;98306.09;;;2.86;94.90
54910;BME280;63189;51.240;9.964;2023-03-04T08:58:40;98306.94;;;2.87;94.34
54910;BME280;63189;51.240;9.964;2023-03-04T09:01:12;98305.22;;;2.89;95.14
54910;BME280;63189;51.240;9.964;2023-03-04T09:03:38;98302.66;;;2.89;94.59
54910;BME280;63189;51.240;9.964;2023-03-04T09:06:04;98298.41;;;2.93;95.16
54910;BME280;63189;51.240;9.964;2023-03-04T09:08:31;98301.00;;;2.94;95.26
54910;BME280;63189;51.240;9.964;2023-03-04T09:10:56;98301.84;;;2.98;95.79
54910;BME280;63189;51.240;9.964;2023-03-04T09:13:23;98295.00;;;3.00;95.67
54910;BME280;63189;51.240;9.964;2023-03-04T09:15:50;98302.75;;;3.04;95.85
54910;BME280;63189;51.240;9.964;2023-03-04T09:18:16;98293.31;;;3.06;95.25
54910;BME280;63189;51.240;9.964;2023-03-04T09:20:42;98297.59;;;3.06;95.37
54910;BME280;63189;51.240;9.964;2023-03-04T09:23:07;98302.75;;;3.04;95.02
54910;BME280;63189;51.240;9.964;2023-03-04T09:25:34;98302.75;;;3.06;95.38
54910;BME280;63189;51.240;9.964;2023-03-04T09:27:59;98296.75;;;3.07;96.05
54910;BME280;63189;51.240;9.964;2023-03-04T09:30:25;98306.19;;;3.08;95.93
54910;BME280;63189;51.240;9.964;2023-03-04T09:32:50;98303.63;;;3.09;96.17
54910;BME280;63189;51.240;9.964;2023-03-04T09:35:15;98300.19;;;3.10;96.19
54910;BME280;63189;51.240;9.964;2023-03-04T09:37:41;98302.78;;;3.12;96.65
54910;BME280;63189;51.240;9.964;2023-03-04T09:40:07;98296.75;;;3.10;96.51
54910;BME280;63189;51.240;9.964;2023-03-04T09:42:36;98299.34;;;3.10;97.16
54910;BME280;63189;51.240;9.964;2023-03-04T09:45:05;98300.19;;;3.10;97.42
54910;BME280;63189;51.240;9.964;2023-03-04T09:47:33;98302.78;;;3.10;97.08
54910;BME280;63189;51.240;9.964;2023-03-04T09:50:09;98300.22;;;3.13;97.70
54910;BME280;63189;51.240;9.964;2023-03-04T09:53:01;98304.53;;;3.17;97.71
54910;BME280;63189;51.240;9.964;2023-03-04T09:55:37;98305.38;;;3.21;97.76
54910;BME280;63189;51.240;9.964;2023-03-04T09:58:43;98295.13;;;3.24;97.28
54910;BME280;63189;51.240;9.964;2023-03-04T10:01:21;98293.41;;;3.25;97.27
54910;BME280;63189;51.240;9.964;2023-03-04T10:03:56;98299.41;;;3.27;97.66
54910;BME280;63189;51.240;9.964;2023-03-04T10:06:23;98294.25;;;3.25;97.46
54910;BME280;63189;51.240;9.964;2023-03-04T10:08:56;98292.53;;;3.27;97.56
54910;BME280;63189;51.240;9.964;2023-03-04T10:11:41;98303.72;;;3.26;97.81
54910;BME280;63189;51.240;9.964;2023-03-04T10:16:51;98287.38;;;3.24;98.83
54910;BME280;63189;51.240;9.964;2023-03-04T10:24:47;98292.53;;;3.27;99.30
54910;BME280;63189;51.240;9.964;2023-03-04T10:27:16;98290.84;;;3.29;99.32
54910;BME280;63189;51.240;9.964;2023-03-04T10:29:43;98286.53;;;3.31;99.00
54910;BME280;63189;51.240;9.964;2023-03-04T10:32:13;98291.72;;;3.34;99.15
54910;BME280;63189;51.240;9.964;2023-03-04T10:34:40;98292.59;;;3.36;98.64
54910;BME280;63189;51.240;9.964;2023-03-04T10:37:06;98285.72;;;3.40;98.14
54910;BME280;63189;51.240;9.964;2023-03-04T10:39:43;98288.28;;;3.43;98.37
54910;BME280;63189;51.240;9.964;2023-03-04T10:44:42;98284.03;;;3.46;98.85
54910;BME280;63189;51.240;9.964;2023-03-04T10:47:10;98281.44;;;3.51;98.39
54910;BME280;63189;51.240;9.964;2023-03-04T10:54:53;98278.03;;;3.58;98.46
54910;BME280;63189;51.240;9.964;2023-03-04T10:57:23;98273.75;;;3.60;98.81
54910;BME280;63189;51.240;9.964;2023-03-04T10:59:58;98278.03;;;3.61;98.54
54910;BME280;63189;51.240;9.964;2023-03-04T11:02:31;98282.34;;;3.64;98.30
54910;BME280;63189;51.240;9.964;2023-03-04T11:05:10;98266.03;;;3.65;97.82
54910;BME280;63189;51.240;9.964;2023-03-04T11:07:42;98271.16;;;3.63;97.68
54910;BME280;63189;51.240;9.964;2023-03-04T11:10:16;98274.59;;;3.62;97.32
54910;BME280;63189;51.240;9.964;2023-03-04T11:12:47;98274.59;;;3.62;97.10
54910;BME280;63189;51.240;9.964;2023-03-04T11:15:24;98268.59;;;3.66;97.53
54910;BME280;63189;51.240;9.964;2023-03-04T11:18:11;98263.44;;;3.66;97.46
54910;BME280;63189;51.240;9.964;2023-03-04T11:20:41;98262.59;;;3.66;97.04
54910;BME280;63189;51.240;9.964;2023-03-04T11:23:16;98259.16;;;3.68;96.48
54910;BME280;63189;51.240;9.964;2023-03-04T11:25:53;98263.44;;;3.69;96.81
54910;BME280;63189;51.240;9.964;2023-03-04T11:28:38;98260.88;;;3.69;97.16
54910;BME280;63189;51.240;9.964;2023-03-04T11:31:14;98254.84;;;3.69;97.84
54910;BME280;63189;51.240;9.964;2023-03-04T11:33:52;98265.16;;;3.69;97.44
54910;BME280;63189;51.240;9.964;2023-03-04T11:36:34;98256.56;;;3.68;97.95
54910;BME280;63189;51.240;9.964;2023-03-04T11:39:15;98259.16;;;3.68;98.11
54910;BME280;63189;51.240;9.964;2023-03-04T11:41:49;98254.84;;;3.66;98.54
54910;BME280;63189;51.240;9.964;2023-03-04T11:44:15;98254.81;;;3.64;98.74
54910;BME280;63189;51.240;9.964;2023-03-04T11:47:06;98243.69;;;3.65;99.36
54910;BME280;63189;51.240;9.964;2023-03-04T11:53:10;98247.97;;;3.74;98.52
54910;BME280;63189;51.240;9.964;2023-03-04T11:55:52;98243.69;;;3.81;99.23
54910;BME280;63189;51.240;9.964;2023-03-04T12:01:07;98234.22;;;3.84;98.09
54910;BME280;63189;51.240;9.964;2023-03-04T12:07:32;98226.50;;;3.89;98.21
54910;BME280;63189;51.240;9.964;2023-03-04T12:09:43;98224.78;;;3.85;98.04
54910;BME280;63189;51.240;9.964;2023-03-04T12:20:52;98211.03;;;3.89;97.92
54910;BME280;63189;51.240;9.964;2023-03-04T12:28:33;98215.34;;;3.87;97.00
54910;BME280;63189;51.240;9.964;2023-03-04T12:31:40;98198.13;;;3.90;96.90
54910;BME280;63189;51.240;9.964;2023-03-04T12:37:20;98202.44;;;3.99;97.27
54910;BME280;63189;51.240;9.964;2023-03-04T12:45:45;98188.66;;;4.09;96.49
54910;BME280;63189;51.240;9.964;2023-03-04T12:48:22;98187.81;;;4.09;95.92
54910;BME280;63189;51.240;9.964;2023-03-04T12:51:01;98185.22;;;4.13;96.32
54910;BME280;63189;51.240;9.964;2023-03-04T12:54:42;98191.22;;;4.14;96.04
54910;BME280;63189;51.240;9.964;2023-03-04T12:59:30;98175.75;;;4.11;95.18
54910;BME280;63189;51.240;9.964;2023-03-04T13:02:17;98174.03;;;4.11;94.39
54910;BME280;63189;51.240;9.964;2023-03-04T13:07:40;98174.88;;;4.16;93.61
54910;BME280;63189;51.240;9.964;2023-03-04T13:10:18;98172.31;;;4.21;93.01
54910;BME280;63189;51.240;9.964;2023-03-04T13:18:35;98174.91;;;4.19;92.12
54910;BME280;63189;51.240;9.964;2023-03-04T13:21:24;98164.56;;;4.19;93.39
54910;BME280;63189;51.240;9.964;2023-03-04T13:23:51;98162.00;;;4.19;94.05
54910;BME280;63189;51.240;9.964;2023-03-04T13:26:18;98156.81;;;4.24;94.46
54910;BME280;63189;51.240;9.964;2023-03-04T13:28:45;98160.25;;;4.29;94.54
54910;BME280;63189;51.240;9.964;2023-03-04T13:31:18;98149.91;;;4.33;94.22
54910;BME280;63189;51.240;9.964;2023-03-04T13:33:46;98151.59;;;4.36;94.69
54910;BME280;63189;51.240;9.964;2023-03-04T13:36:34;98153.31;;;4.37;94.51
54910;BME280;63189;51.240;9.964;2023-03-04T13:41:48;98143.84;;;4.38;94.61
54910;BME280;63189;51.240;9.964;2023-03-04T13:47:23;98135.28;;;4.39;95.27
54910;BME280;63189;51.240;9.964;2023-03-04T13:50:28;98133.53;;;4.44;95.59
54910;BME280;63189;51.240;9.964;2023-03-04T13:53:00;98123.22;;;4.41;96.02
54910;BME280;63189;51.240;9.964;2023-03-04T13:55:37;98135.25;;;4.42;95.89
54910;BME280;63189;51.240;9.964;2023-03-04T13:58:20;98143.00;;;4.40;96.46
54910;BME280;63189;51.240;9.964;2023-03-04T14:00:49;98129.25;;;4.35;97.62
54910;BME280;63189;51.240;9.964;2023-03-04T14:03:20;98130.09;;;4.35;99.01
54910;BME280;63189;51.240;9.964;2023-03-04T14:05:46;98127.53;;;4.26;99.33
54910;BME280;63189;51.240;9.964;2023-03-04T14:08:19;98132.72;;;4.23;100.00
54910;BME280;63189;51.240;9.964;2023-03-04T14:10:54;98134.44;;;4.23;100.00
54910;BME280;63189;51.240;9.964;2023-03-04T14:13:20;98131.84;;;4.24;100.00
54910;BME280;63189;51.240;9.964;2023-03-04T14:15:54;98130.13;;;4.26;100.00
54910;BME280;63189;51.240;9.964;2023-03-04T14:18:20;98121.53;;;4.26;100.00
54910;BME280;63189;51.240;9.964;2023-03-04T14:20:49;98119.81;;;4.25;100.00
54910;BME280;63189;51.240;9.964;2023-03-04T14:23:32;98125.84;;;4.21;100.00
54910;BME280;63189;51.240;9.964;2023-03-04T14:26:32;98111.22;;;4.20;100.00